Time;durP1;ratioP1;P1;durP2;ratioP2;P2;SDS_P1;SDS_P2;PMS_P1;PMS_P2;Temp;Humidity;BMP_temperature;BMP_pressure;BME280_temperature;BME280_humidity;BME280_pressure;Samples;Min_cycle;Max_cycle;Signal;HPM_P1;HPM_P2
2021/06/04 00:01:51;;;;;;;8.50;3.63;;;;;;;;;;5016843;28;20083;-83
2021/06/04 00:04:37;;;;;;;7.13;3.80;;;;;;;;;;5020302;28;20044;-82
2021/06/04 00:07:22;;;;;;;6.00;3.22;;;;;;;;;;5024444;28;20025;-83
2021/06/04 00:10:09;;;;;;;5.50;3.90;;;;;;;;;;5020776;28;20053;-83
2021/06/04 00:12:55;;;;;;;4.93;3.40;;;;;;;;;;5022082;28;20029;-82
2021/06/04 00:15:40;;;;;;;5.40;4.18;;;;;;;;;;5021611;28;20028;-83
2021/06/04 00:18:26;;;;;;;7.05;3.92;;;;;;;;;;5022404;28;20384;-83
2021/06/04 00:21:15;;;;;;;6.60;3.70;;;;;;;;;;5014393;28;20311;-84
2021/06/04 00:24:01;;;;;;;4.85;3.58;;;;;;;;;;5014586;28;20021;-83
2021/06/04 00:26:47;;;;;;;6.18;3.80;;;;;;;;;;5020547;28;20036;-83
2021/06/04 00:29:33;;;;;;;6.53;3.92;;;;;;;;;;5022890;28;20040;-83
2021/06/04 00:32:22;;;;;;;9.75;4.35;;;;;;;;;;5015713;28;20030;-83
2021/06/04 00:35:08;;;;;;;5.05;3.45;;;;;;;;;;5024233;28;20033;-83
2021/06/04 00:37:54;;;;;;;5.65;3.90;;;;;;;;;;5015823;28;20053;-83
2021/06/04 00:40:41;;;;;;;7.03;3.90;;;;;;;;;;5017893;28;20022;-83
2021/06/04 00:43:27;;;;;;;4.75;3.53;;;;;;;;;;5022232;28;20466;-83
2021/06/04 00:46:12;;;;;;;5.35;3.85;;;;;;;;;;5019278;28;20013;-82
2021/06/04 00:48:57;;;;;;;6.28;3.70;;;;;;;;;;5014924;28;20130;-83
2021/06/04 00:51:46;;;;;;;5.38;3.75;;;;;;;;;;5020205;28;20019;-83
2021/06/04 00:54:32;;;;;;;5.45;3.40;;;;;;;;;;5032152;28;20032;-82
2021/06/04 00:57:17;;;;;;;4.88;3.35;;;;;;;;;;5013939;28;20032;-83
2021/06/04 01:00:09;;;;;;;6.82;4.47;;;;;;;;;;5018958;28;20105;-83
2021/06/04 01:02:55;;;;;;;6.30;3.90;;;;;;;;;;4995300;28;20073;-83
2021/06/04 01:05:41;;;;;;;8.35;4.60;;;;;;;;;;5026233;28;20032;-82
2021/06/04 01:08:45;;;;;;;5.80;3.55;;;;;;;;;;5003399;28;20037;-82
2021/06/04 01:11:52;;;;;;;5.65;3.92;;;;;;;;;;5011401;28;20033;-82
2021/06/04 01:14:45;;;;;;;5.25;3.53;;;;;;;;;;5015287;28;20025;-82
2021/06/04 01:17:34;;;;;;;4.20;3.63;;;;;;;;;;5021253;28;20049;-82
2021/06/04 01:20:24;;;;;;;5.20;3.83;;;;;;;;;;5038095;28;20157;-82
2021/06/04 01:23:14;;;;;;;8.45;3.78;;;;;;;;;;5035684;28;20083;-81
2021/06/04 01:26:02;;;;;;;6.40;3.85;;;;;;;;;;5046762;28;20107;-82
2021/06/04 01:28:49;;;;;;;5.05;3.60;;;;;;;;;;5038509;28;20039;-82
2021/06/04 01:31:41;;;;;;;5.20;3.88;;;;;;;;;;5036555;28;20130;-82
2021/06/04 01:34:28;;;;;;;6.05;3.80;;;;;;;;;;5038447;28;20093;-81
2021/06/04 01:37:18;;;;;;;6.32;3.80;;;;;;;;;;5056084;28;20025;-81
2021/06/04 01:40:07;;;;;;;8.13;4.22;;;;;;;;;;5052066;28;20024;-82
2021/06/04 01:42:53;;;;;;;5.97;3.90;;;;;;;;;;5050402;28;20013;-82
2021/06/04 01:45:40;;;;;;;7.53;3.75;;;;;;;;;;5058078;28;20112;-82
2021/06/04 01:48:28;;;;;;;6.53;3.78;;;;;;;;;;5055467;28;20016;-81
2021/06/04 01:51:16;;;;;;;4.88;3.38;;;;;;;;;;5058762;28;20378;-82
2021/06/04 01:54:07;;;;;;;6.50;3.45;;;;;;;;;;5053998;28;20025;-82
2021/06/04 01:56:54;;;;;;;6.15;4.03;;;;;;;;;;5054441;28;20032;-82
2021/06/04 01:59:41;;;;;;;4.88;4.00;;;;;;;;;;5053204;28;20025;-83
2021/06/04 02:02:28;;;;;;;6.63;3.67;;;;;;;;;;5053360;28;20383;-83
2021/06/04 02:05:17;;;;;;;3.97;3.20;;;;;;;;;;5049970;28;20017;-83
2021/06/04 02:08:03;;;;;;;5.97;3.83;;;;;;;;;;5052288;28;20375;-83
2021/06/04 02:10:50;;;;;;;7.68;4.10;;;;;;;;;;5050391;28;20032;-83
2021/06/04 02:13:35;;;;;;;5.22;3.00;;;;;;;;;;5053365;28;20036;-83
2021/06/04 02:16:33;;;;;;;5.35;3.67;;;;;;;;;;5056712;28;20089;-84
2021/06/04 02:19:37;;;;;;;5.22;3.97;;;;;;;;;;5048434;28;20076;-83
2021/06/04 02:22:25;;;;;;;5.15;3.60;;;;;;;;;;5049682;28;20021;-84
2021/06/04 02:25:29;;;;;;;5.45;3.72;;;;;;;;;;5059337;28;20079;-83
2021/06/04 02:28:18;;;;;;;5.88;3.70;;;;;;;;;;5060234;28;20093;-83
2021/06/04 02:31:09;;;;;;;6.68;4.05;;;;;;;;;;5062482;28;20032;-83
2021/06/04 02:34:04;;;;;;;5.40;3.97;;;;;;;;;;5067951;28;20028;-84
2021/06/04 02:36:51;;;;;;;4.13;3.20;;;;;;;;;;5069713;28;20302;-84
2021/06/04 02:39:41;;;;;;;6.22;3.65;;;;;;;;;;5057258;28;20031;-83
2021/06/04 02:42:33;;;;;;;8.15;4.13;;;;;;;;;;5058699;28;20016;-83
2021/06/04 02:45:24;;;;;;;4.75;3.53;;;;;;;;;;5056140;28;20504;-83
2021/06/04 02:48:11;;;;;;;8.32;3.83;;;;;;;;;;5041359;28;20039;-83
2021/06/04 02:51:03;;;;;;;4.47;3.60;;;;;;;;;;5058531;28;20070;-83
2021/06/04 02:53:49;;;;;;;5.68;3.28;;;;;;;;;;5061845;28;20374;-83
2021/06/04 02:56:36;;;;;;;5.63;4.25;;;;;;;;;;5057987;28;20035;-83
2021/06/04 02:59:24;;;;;;;4.93;3.50;;;;;;;;;;5056121;28;20032;-82
2021/06/04 03:02:18;;;;;;;5.78;3.67;;;;;;;;;;5061490;28;20016;-83
2021/06/04 03:05:07;;;;;;;4.95;3.47;;;;;;;;;;5061526;28;20104;-83
2021/06/04 03:07:52;;;;;;;6.82;4.05;;;;;;;;;;5059212;28;20020;-82
2021/06/04 03:10:39;;;;;;;5.00;3.20;;;;;;;;;;5059387;28;20064;-83
2021/06/04 03:13:26;;;;;;;4.70;3.67;;;;;;;;;;5056040;28;20033;-84
2021/06/04 03:16:15;;;;;;;6.65;3.85;;;;;;;;;;5058958;28;20055;-83
2021/06/04 03:19:04;;;;;;;4.15;3.70;;;;;;;;;;5049780;28;20032;-83
2021/06/04 03:21:55;;;;;;;5.80;4.00;;;;;;;;;;5068383;28;20028;-83
2021/06/04 03:24:41;;;;;;;7.57;4.20;;;;;;;;;;5060003;28;20123;-82
2021/06/04 03:27:26;;;;;;;5.72;4.13;;;;;;;;;;5060633;28;20031;-83
2021/06/04 03:30:13;;;;;;;6.18;4.25;;;;;;;;;;5054865;28;20387;-82
2021/06/04 03:32:58;;;;;;;6.63;3.95;;;;;;;;;;5062197;28;20041;-82
2021/06/04 03:35:44;;;;;;;5.70;4.05;;;;;;;;;;5057951;28;20553;-83
2021/06/04 03:38:29;;;;;;;7.20;4.50;;;;;;;;;;5055441;28;20570;-82
2021/06/04 03:41:16;;;;;;;4.88;3.83;;;;;;;;;;5056156;28;20367;-83
2021/06/04 03:44:02;;;;;;;7.10;4.40;;;;;;;;;;5057535;28;20042;-82
2021/06/04 03:46:48;;;;;;;4.93;3.75;;;;;;;;;;5056550;28;20745;-83
2021/06/04 03:49:33;;;;;;;5.75;4.00;;;;;;;;;;5053438;28;20078;-83
2021/06/04 03:52:21;;;;;;;5.80;4.15;;;;;;;;;;5062525;28;20055;-82
2021/06/04 03:55:08;;;;;;;8.05;4.82;;;;;;;;;;5056224;28;20394;-81
2021/06/04 03:57:56;;;;;;;5.85;4.15;;;;;;;;;;5056947;28;20040;-82
2021/06/04 04:00:43;;;;;;;8.27;4.45;;;;;;;;;;5056029;28;20024;-82
2021/06/04 04:03:28;;;;;;;7.68;4.43;;;;;;;;;;5055054;28;20111;-82
2021/06/04 04:06:13;;;;;;;7.28;4.22;;;;;;;;;;5052135;28;20042;-82
2021/06/04 04:08:59;;;;;;;6.78;3.88;;;;;;;;;;5065372;28;20020;-82
2021/06/04 04:11:45;;;;;;;5.80;4.00;;;;;;;;;;5056830;28;20020;-82
2021/06/04 04:14:31;;;;;;;9.73;4.32;;;;;;;;;;5054678;28;20020;-82
2021/06/04 04:17:16;;;;;;;7.47;3.70;;;;;;;;;;5064579;28;20710;-81
2021/06/04 04:20:02;;;;;;;7.20;4.40;;;;;;;;;;5053933;28;20094;-82
2021/06/04 04:22:48;;;;;;;6.18;4.22;;;;;;;;;;5054741;28;20020;-82
2021/06/04 04:25:34;;;;;;;7.40;4.45;;;;;;;;;;5054175;28;20044;-82
2021/06/04 04:28:23;;;;;;;7.15;4.07;;;;;;;;;;5059968;28;20056;-82
2021/06/04 04:31:09;;;;;;;8.30;3.95;;;;;;;;;;5050364;28;20086;-81
2021/06/04 04:33:56;;;;;;;7.28;3.97;;;;;;;;;;5042731;28;20028;-82
2021/06/04 04:36:43;;;;;;;5.20;3.85;;;;;;;;;;5057459;28;20021;-82
2021/06/04 04:39:33;;;;;;;6.82;4.50;;;;;;;;;;5053719;28;20025;-83
2021/06/04 04:42:20;;;;;;;5.95;4.25;;;;;;;;;;5052181;28;20429;-83
2021/06/04 04:45:11;;;;;;;8.80;4.43;;;;;;;;;;5062617;28;20055;-81
2021/06/04 04:47:56;;;;;;;7.15;4.20;;;;;;;;;;5050365;28;20225;-82
2021/06/04 04:50:41;;;;;;;7.65;4.53;;;;;;;;;;5056275;28;20025;-83
2021/06/04 04:53:27;;;;;;;6.32;3.90;;;;;;;;;;5056180;28;20024;-82
2021/06/04 04:56:12;;;;;;;8.50;4.18;;;;;;;;;;5056420;28;20028;-83
2021/06/04 04:58:57;;;;;;;5.10;3.75;;;;;;;;;;5057774;28;20024;-82
2021/06/04 05:01:43;;;;;;;5.45;3.80;;;;;;;;;;5050587;28;20032;-81
2021/06/04 05:04:29;;;;;;;6.88;3.80;;;;;;;;;;5067171;28;20027;-82
2021/06/04 05:07:14;;;;;;;9.05;4.75;;;;;;;;;;5051645;28;20024;-81
2021/06/04 05:10:00;;;;;;;8.35;4.18;;;;;;;;;;5052862;28;20098;-80
2021/06/04 05:12:45;;;;;;;5.50;4.07;;;;;;;;;;5059757;28;20103;-81
2021/06/04 05:15:31;;;;;;;6.68;4.07;;;;;;;;;;5054907;28;20478;-82
2021/06/04 05:18:17;;;;;;;6.60;4.40;;;;;;;;;;5061439;28;20050;-81
2021/06/04 05:21:03;;;;;;;7.03;4.40;;;;;;;;;;5062220;28;20082;-81
2021/06/04 05:23:48;;;;;;;10.95;4.30;;;;;;;;;;5045508;28;20551;-81
2021/06/04 05:26:34;;;;;;;6.63;4.07;;;;;;;;;;5052372;28;20032;-81
2021/06/04 05:29:20;;;;;;;9.38;4.82;;;;;;;;;;5055522;28;20032;-82
2021/06/04 05:32:06;;;;;;;6.93;4.15;;;;;;;;;;5040918;28;20051;-81
2021/06/04 05:34:51;;;;;;;5.68;4.05;;;;;;;;;;5059720;28;20027;-81
2021/06/04 05:37:37;;;;;;;12.75;4.32;;;;;;;;;;5052317;28;20047;-81
2021/06/04 05:40:27;;;;;;;5.22;4.50;;;;;;;;;;5059635;28;20472;-82
2021/06/04 05:43:14;;;;;;;6.45;4.10;;;;;;;;;;5055255;28;20714;-83
2021/06/04 05:46:01;;;;;;;5.43;4.88;;;;;;;;;;5055634;28;20123;-81
2021/06/04 05:48:47;;;;;;;6.50;4.75;;;;;;;;;;5047186;28;20029;-82
2021/06/04 05:51:32;;;;;;;9.77;5.70;;;;;;;;;;5058589;28;20064;-82
2021/06/04 05:54:18;;;;;;;7.53;4.00;;;;;;;;;;5058772;28;20289;-82
2021/06/04 05:57:04;;;;;;;7.93;4.13;;;;;;;;;;5057316;28;20043;-82
2021/06/04 05:59:49;;;;;;;6.85;4.55;;;;;;;;;;5055691;28;20024;-84
2021/06/04 06:02:34;;;;;;;5.22;4.25;;;;;;;;;;5070340;28;20020;-84
2021/06/04 06:05:20;;;;;;;6.53;3.50;;;;;;;;;;5047523;28;20403;-83
2021/06/04 06:08:05;;;;;;;6.68;3.65;;;;;;;;;;5059185;28;20016;-82
2021/06/04 06:10:50;;;;;;;6.80;3.67;;;;;;;;;;5067167;28;20028;-82
2021/06/04 06:13:36;;;;;;;5.60;4.00;;;;;;;;;;5063893;28;20442;-82
2021/06/04 06:16:21;;;;;;;5.68;4.00;;;;;;;;;;5064616;28;20033;-82
2021/06/04 06:19:07;;;;;;;4.25;3.35;;;;;;;;;;5063764;28;20120;-83
2021/06/04 06:21:52;;;;;;;5.97;3.15;;;;;;;;;;5063588;28;20012;-82
2021/06/04 06:24:37;;;;;;;3.83;2.97;;;;;;;;;;5055178;28;20036;-81
2021/06/04 06:27:23;;;;;;;4.57;3.03;;;;;;;;;;5071983;28;20119;-82
2021/06/04 06:30:09;;;;;;;4.07;2.92;;;;;;;;;;5061041;28;20029;-81
2021/06/04 06:32:54;;;;;;;5.72;2.97;;;;;;;;;;5068439;28;20097;-82
2021/06/04 06:35:45;;;;;;;6.75;3.75;;;;;;;;;;5056581;28;20065;-82
2021/06/04 06:38:31;;;;;;;3.33;2.63;;;;;;;;;;5059127;28;20119;-82
2021/06/04 06:41:19;;;;;;;6.95;3.80;;;;;;;;;;5068859;28;20098;-82
2021/06/04 06:44:04;;;;;;;4.32;3.10;;;;;;;;;;5058181;28;20027;-82
2021/06/04 06:46:51;;;;;;;5.57;3.00;;;;;;;;;;5060161;28;20028;-82
2021/06/04 06:49:36;;;;;;;10.63;3.45;;;;;;;;;;5060748;28;20085;-81
2021/06/04 06:52:22;;;;;;;5.00;3.45;;;;;;;;;;5058810;28;20089;-81
2021/06/04 06:55:09;;;;;;;5.28;2.97;;;;;;;;;;5058872;28;20020;-82
2021/06/04 06:57:54;;;;;;;4.47;3.13;;;;;;;;;;5058984;28;20025;-82
2021/06/04 07:00:45;;;;;;;6.72;3.90;;;;;;;;;;5063497;28;20042;-83
2021/06/04 07:03:31;;;;;;;9.35;3.88;;;;;;;;;;5063406;28;20663;-83
2021/06/04 07:06:18;;;;;;;5.03;3.88;;;;;;;;;;5044995;28;20028;-82
2021/06/04 07:09:05;;;;;;;8.32;3.65;;;;;;;;;;5060146;28;20024;-85
2021/06/04 07:11:54;;;;;;;6.10;3.85;;;;;;;;;;5054646;28;20079;-81
2021/06/04 07:14:39;;;;;;;4.45;3.20;;;;;;;;;;5062032;28;20027;-83
2021/06/04 07:17:26;;;;;;;9.43;3.63;;;;;;;;;;5055924;28;20040;-82
2021/06/04 07:20:14;;;;;;;6.43;4.32;;;;;;;;;;5057057;28;20040;-82
2021/06/04 07:22:59;;;;;;;7.10;4.10;;;;;;;;;;5024900;28;20021;-82
2021/06/04 07:25:46;;;;;;;12.07;4.78;;;;;;;;;;5041106;28;20025;-85
2021/06/04 07:28:32;;;;;;;8.30;4.18;;;;;;;;;;5038858;28;20112;-86
2021/06/04 07:31:19;;;;;;;9.23;4.15;;;;;;;;;;5035286;28;20025;-83
2021/06/04 07:34:05;;;;;;;5.43;3.13;;;;;;;;;;5043025;28;20016;-86
2021/06/04 07:36:54;;;;;;;5.38;3.40;;;;;;;;;;5048274;28;20033;-84
2021/06/04 07:39:39;;;;;;;5.18;2.75;;;;;;;;;;5043772;28;20027;-85
2021/06/04 07:42:24;;;;;;;5.75;2.85;;;;;;;;;;5044074;28;20714;-83
2021/06/04 07:45:09;;;;;;;6.85;3.47;;;;;;;;;;5038621;28;20439;-85
2021/06/04 07:47:55;;;;;;;3.85;3.10;;;;;;;;;;5046505;28;20016;-83
2021/06/04 07:50:41;;;;;;;7.60;3.28;;;;;;;;;;5038737;28;20079;-84
2021/06/04 07:53:28;;;;;;;4.70;3.28;;;;;;;;;;5033308;28;20036;-82
2021/06/04 07:56:15;;;;;;;6.15;2.70;;;;;;;;;;5039345;28;20115;-82
2021/06/04 07:59:01;;;;;;;7.82;4.07;;;;;;;;;;5038972;28;20028;-83
2021/06/04 08:01:46;;;;;;;9.50;2.95;;;;;;;;;;5025740;28;20131;-84
2021/06/04 08:04:34;;;;;;;5.32;3.30;;;;;;;;;;5028344;28;20020;-83
2021/06/04 08:07:19;;;;;;;6.82;3.13;;;;;;;;;;5043651;28;20040;-83
2021/06/04 08:10:05;;;;;;;5.80;2.90;;;;;;;;;;5031905;28;20028;-84
2021/06/04 08:12:50;;;;;;;4.57;3.13;;;;;;;;;;5035423;28;20309;-84
2021/06/04 08:15:37;;;;;;;5.47;3.17;;;;;;;;;;5048086;28;20103;-83
2021/06/04 08:18:24;;;;;;;5.95;3.33;;;;;;;;;;5053049;28;20078;-82
2021/06/04 08:21:13;;;;;;;4.78;3.08;;;;;;;;;;5035273;28;20499;-83
2021/06/04 08:23:58;;;;;;;5.80;3.05;;;;;;;;;;5029937;28;20019;-82
2021/06/04 08:26:44;;;;;;;8.15;3.10;;;;;;;;;;5034356;28;20388;-83
2021/06/04 08:29:31;;;;;;;5.50;3.00;;;;;;;;;;5007557;28;20033;-83
2021/06/04 08:32:16;;;;;;;5.55;2.97;;;;;;;;;;5028686;28;20176;-83
2021/06/04 08:35:03;;;;;;;5.13;2.55;;;;;;;;;;5015330;28;20416;-85
2021/06/04 08:37:48;;;;;;;8.75;3.30;;;;;;;;;;5017627;28;20193;-85
2021/06/04 08:40:35;;;;;;;6.15;2.90;;;;;;;;;;5020488;28;20075;-84
2021/06/04 08:43:34;;;;;;;6.35;2.58;;;;;;;;;;5016761;28;20029;-84
2021/06/04 08:46:52;;;;;;;3.20;2.05;;;;;;;;;;5040729;28;20029;-84
2021/06/04 08:49:52;;;;;;;4.93;2.65;;;;;;;;;;5000542;28;20036;-84
2021/06/04 08:52:41;;;;;;;8.98;3.35;;;;;;;;;;5018442;28;20510;-83
2021/06/04 08:56:04;;;;;;;4.77;2.97;;;;;;;;;;5019194;28;20041;-84
2021/06/04 08:58:56;;;;;;;6.68;3.00;;;;;;;;;;4965858;28;20489;-82
2021/06/04 09:01:41;;;;;;;4.00;2.45;;;;;;;;;;4947885;28;20030;-84
2021/06/04 09:04:32;;;;;;;8.48;2.90;;;;;;;;;;5013365;28;20117;-85
2021/06/04 09:07:23;;;;;;;4.47;2.60;;;;;;;;;;5020897;28;20536;-83
2021/06/04 09:10:12;;;;;;;5.10;3.20;;;;;;;;;;5019957;28;20090;-85
2021/06/04 09:13:19;;;;;;;5.57;2.58;;;;;;;;;;5012824;28;20972;-84
2021/06/04 09:16:11;;;;;;;5.88;3.13;;;;;;;;;;5019446;28;20502;-85
2021/06/04 09:18:58;;;;;;;8.57;3.33;;;;;;;;;;5019329;28;20028;-84
2021/06/04 09:21:44;;;;;;;6.28;2.97;;;;;;;;;;5024289;28;20108;-85
2021/06/04 09:24:31;;;;;;;6.22;2.83;;;;;;;;;;5043861;28;20030;-84
2021/06/04 09:27:26;;;;;;;5.75;2.75;;;;;;;;;;5017437;28;20029;-86
2021/06/04 09:30:14;;;;;;;7.45;3.22;;;;;;;;;;5022042;28;20023;-83
2021/06/04 09:33:03;;;;;;;6.30;2.77;;;;;;;;;;5027202;28;20020;-83
2021/06/04 09:35:58;;;;;;;5.32;2.42;;;;;;;;;;5019648;28;20336;-83
2021/06/04 09:38:43;;;;;;;5.72;3.10;;;;;;;;;;5025196;28;20028;-83
2021/06/04 09:41:30;;;;;;;9.13;3.00;;;;;;;;;;5006128;28;20161;-84
2021/06/04 09:44:21;;;;;;;6.07;2.95;;;;;;;;;;5039191;28;20017;-84
2021/06/04 09:47:12;;;;;;;6.57;2.75;;;;;;;;;;5018371;28;20033;-83
2021/06/04 09:49:57;;;;;;;6.18;2.97;;;;;;;;;;5020423;28;20544;-83
2021/06/04 09:52:43;;;;;;;5.68;4.18;;;;;;;;;;5025349;28;20548;-81
2021/06/04 09:55:30;;;;;;;7.65;3.55;;;;;;;;;;5020844;28;20059;-83
2021/06/04 09:58:26;;;;;;;6.68;3.45;;;;;;;;;;5010892;28;20032;-83
2021/06/04 10:01:11;;;;;;;7.68;2.80;;;;;;;;;;5015154;28;20032;-84
2021/06/04 10:04:04;;;;;;;7.78;3.05;;;;;;;;;;5015543;28;20052;-83
2021/06/04 10:06:59;;;;;;;8.48;3.00;;;;;;;;;;5021670;28;20029;-86
2021/06/04 10:09:45;;;;;;;5.60;3.08;;;;;;;;;;4992498;28;20024;-85
2021/06/04 10:12:39;;;;;;;6.45;2.72;;;;;;;;;;5015632;28;20033;-83
2021/06/04 10:15:36;;;;;;;5.72;2.90;;;;;;;;;;5019305;28;20025;-84
2021/06/04 10:18:37;;;;;;;6.30;3.22;;;;;;;;;;5022756;28;20087;-86
2021/06/04 10:21:39;;;;;;;6.75;3.17;;;;;;;;;;5019152;28;20053;-86
2021/06/04 10:24:33;;;;;;;8.55;2.90;;;;;;;;;;5017182;28;20037;-86
2021/06/04 10:30:44;;;;;;;6.53;2.97;;;;;;;;;;5008081;28;20018;-83
2021/06/04 10:33:54;;;;;;;4.90;3.15;;;;;;;;;;5022955;28;20025;-83
2021/06/04 10:36:42;;;;;;;5.82;3.42;;;;;;;;;;5011616;28;20083;-84
2021/06/04 10:40:00;;;;;;;7.47;3.70;;;;;;;;;;5017271;28;20265;-83
2021/06/04 10:42:59;;;;;;;4.50;3.00;;;;;;;;;;5014993;28;20021;-83
2021/06/04 10:45:57;;;;;;;5.47;3.10;;;;;;;;;;4999412;28;20046;-84
2021/06/04 10:52:16;;;;;;;7.07;3.53;;;;;;;;;;5020851;28;20030;-83
2021/06/04 10:55:23;;;;;;;7.43;2.83;;;;;;;;;;5020699;28;20097;-84
2021/06/04 10:58:21;;;;;;;5.70;3.28;;;;;;;;;;5031307;28;20033;-84
2021/06/04 11:05:13;;;;;;;6.15;3.90;;;;;;;;;;5005728;28;20033;-84
2021/06/04 11:11:48;;;;;;;6.60;3.80;;;;;;;;;;5021721;28;20029;-84
2021/06/04 11:14:52;;;;;;;7.85;3.30;;;;;;;;;;5014454;28;20026;-84
2021/06/04 11:17:37;;;;;;;7.82;3.33;;;;;;;;;;5020608;28;20029;-83
2021/06/04 11:20:26;;;;;;;5.57;2.95;;;;;;;;;;5042824;28;20123;-84
2021/06/04 11:23:14;;;;;;;6.55;3.05;;;;;;;;;;5056463;28;20031;-85
2021/06/04 11:26:05;;;;;;;6.33;2.90;;;;;;;;;;5062134;28;20121;-83
2021/06/04 11:28:53;;;;;;;5.43;3.38;;;;;;;;;;5060174;28;20034;-83
2021/06/04 11:31:50;;;;;;;5.78;2.78;;;;;;;;;;5054018;28;20085;-84
2021/06/04 11:34:46;;;;;;;5.10;3.25;;;;;;;;;;5056652;28;20016;-84
2021/06/04 11:37:31;;;;;;;9.02;3.30;;;;;;;;;;5041029;28;20356;-84
2021/06/04 11:40:22;;;;;;;4.95;2.97;;;;;;;;;;5056448;28;20032;-83
2021/06/04 11:43:16;;;;;;;7.25;2.60;;;;;;;;;;5060882;28;20020;-84
2021/06/04 11:46:20;;;;;;;8.50;3.60;;;;;;;;;;5061283;28;20451;-84
2021/06/04 11:49:10;;;;;;;7.32;3.40;;;;;;;;;;5049776;28;20040;-83
2021/06/04 11:52:16;;;;;;;5.07;3.22;;;;;;;;;;5058218;28;20031;-83
2021/06/04 11:55:10;;;;;;;8.02;3.72;;;;;;;;;;5063613;28;20552;-83
2021/06/04 11:58:00;;;;;;;7.93;3.78;;;;;;;;;;5063199;28;20060;-83
2021/06/04 12:00:54;;;;;;;8.25;3.60;;;;;;;;;;5059696;28;20028;-82
2021/06/04 12:03:43;;;;;;;9.07;4.40;;;;;;;;;;5053499;28;20017;-82
2021/06/04 12:06:32;;;;;;;5.95;3.63;;;;;;;;;;5059820;28;20484;-84
2021/06/04 12:09:30;;;;;;;5.60;4.05;;;;;;;;;;5060663;28;20028;-83
2021/06/04 12:12:15;;;;;;;8.10;3.70;;;;;;;;;;5058525;28;20115;-83
2021/06/04 12:15:00;;;;;;;8.10;3.75;;;;;;;;;;5042152;28;20107;-83
2021/06/04 12:17:46;;;;;;;15.15;4.22;;;;;;;;;;5058962;28;20055;-82
2021/06/04 12:20:36;;;;;;;6.50;3.72;;;;;;;;;;5053348;28;20424;-83
2021/06/04 12:23:41;;;;;;;10.70;4.55;;;;;;;;;;5063593;28;20032;-84
2021/06/04 12:26:31;;;;;;;6.22;3.45;;;;;;;;;;5053404;28;20036;-84
2021/06/04 12:29:31;;;;;;;9.52;4.20;;;;;;;;;;5058215;28;20020;-83
2021/06/04 12:32:17;;;;;;;9.95;4.97;;;;;;;;;;5060394;28;20103;-84
2021/06/04 12:35:22;;;;;;;12.18;4.25;;;;;;;;;;5053031;28;20035;-81
2021/06/04 12:38:21;;;;;;;4.82;2.90;;;;;;;;;;5040037;28;20028;-81
2021/06/04 12:41:07;;;;;;;4.78;3.00;;;;;;;;;;5050137;28;20085;-82
2021/06/04 12:43:53;;;;;;;5.72;2.72;;;;;;;;;;5055203;28;20044;-83
2021/06/04 12:46:41;;;;;;;5.90;2.47;;;;;;;;;;5056646;28;20115;-84
2021/06/04 12:49:27;;;;;;;10.40;3.40;;;;;;;;;;5059039;28;20039;-84
2021/06/04 12:52:16;;;;;;;6.75;3.58;;;;;;;;;;5059933;28;20467;-83
2021/06/04 12:55:01;;;;;;;;;;;;;;;;;;5055019;28;20021;-83
2021/06/04 12:57:47;;;;;;;4.38;2.80;;;;;;;;;;5056777;28;20348;-83
2021/06/04 13:00:32;;;;;;;7.80;3.08;;;;;;;;;;5056796;28;20032;-83
2021/06/04 13:06:42;;;;;;;8.23;2.47;;;;;;;;;;5049442;28;20063;-82
2021/06/04 13:09:27;;;;;;;6.93;3.10;;;;;;;;;;5059372;28;20380;-84
2021/06/04 13:12:21;;;;;;;5.22;3.70;;;;;;;;;;5056408;28;20028;-84
2021/06/04 13:15:14;;;;;;;6.90;3.20;;;;;;;;;;5068435;28;20020;-84
2021/06/04 13:18:04;;;;;;;5.97;3.15;;;;;;;;;;5059499;28;20024;-84
2021/06/04 13:20:52;;;;;;;6.90;3.38;;;;;;;;;;5052127;28;20181;-84
2021/06/04 13:23:38;;;;;;;6.05;3.20;;;;;;;;;;5055055;28;20016;-85
2021/06/04 13:26:25;;;;;;;6.93;3.90;;;;;;;;;;5054952;28;20055;-84
2021/06/04 13:29:32;;;;;;;8.38;3.67;;;;;;;;;;5036761;28;20031;-84
2021/06/04 13:32:19;;;;;;;6.22;3.88;;;;;;;;;;5051073;28;20027;-82
2021/06/04 13:35:05;;;;;;;8.88;5.18;;;;;;;;;;5055000;28;20020;-84
2021/06/04 13:37:57;;;;;;;6.90;4.72;;;;;;;;;;5053729;28;20055;-84
2021/06/04 13:40:42;;;;;;;8.98;4.07;;;;;;;;;;5064354;28;20048;-85
2021/06/04 13:43:33;;;;;;;8.52;4.20;;;;;;;;;;5056382;28;20072;-83
2021/06/04 13:46:21;;;;;;;8.70;4.28;;;;;;;;;;5057845;28;20111;-83
2021/06/04 13:49:09;;;;;;;8.30;3.97;;;;;;;;;;5056198;28;20024;-85
2021/06/04 13:51:56;;;;;;;6.30;3.85;;;;;;;;;;5054390;28;20099;-85
2021/06/04 13:54:45;;;;;;;7.95;3.22;;;;;;;;;;5056641;28;20028;-83
2021/06/04 13:57:34;;;;;;;14.68;4.50;;;;;;;;;;5055275;28;20027;-84
2021/06/04 14:00:27;;;;;;;13.52;6.10;;;;;;;;;;5060547;28;20025;-82
2021/06/04 14:03:15;;;;;;;9.23;4.65;;;;;;;;;;5051537;28;20094;-82
2021/06/04 14:06:03;;;;;;;8.50;4.70;;;;;;;;;;5056785;28;20047;-82
2021/06/04 14:08:59;;;;;;;9.32;4.82;;;;;;;;;;5055975;28;20086;-82
2021/06/04 14:11:52;;;;;;;8.48;4.70;;;;;;;;;;5060562;28;20027;-83
2021/06/04 14:14:41;;;;;;;9.60;4.88;;;;;;;;;;5042402;28;20020;-84
2021/06/04 14:17:27;;;;;;;;;;;;;;;;;;5051804;28;20016;-83
2021/06/04 14:20:30;;;;;;;7.13;4.15;;;;;;;;;;5057479;28;19920;-82
2021/06/04 14:23:30;;;;;;;9.10;4.70;;;;;;;;;;5062937;28;20026;-83
2021/06/04 14:26:15;;;;;;;;;;;;;;;;;;5058674;28;20474;-83
2021/06/04 14:29:01;;;;;;;10.07;4.90;;;;;;;;;;5054677;28;20377;-85
2021/06/04 14:31:46;;;;;;;11.77;5.15;;;;;;;;;;5057297;28;20035;-83
2021/06/04 14:34:33;;;;;;;9.13;4.78;;;;;;;;;;5046907;28;20501;-83
2021/06/04 14:37:39;;;;;;;10.90;5.05;;;;;;;;;;5062082;28;20032;-82
2021/06/04 14:40:26;;;;;;;12.50;6.15;;;;;;;;;;5067952;28;20036;-84
2021/06/04 14:43:11;;;;;;;10.43;5.95;;;;;;;;;;5064063;28;20063;-83
2021/06/04 14:45:57;;;;;;;10.55;6.38;;;;;;;;;;5057851;28;20028;-83
2021/06/04 14:48:43;;;;;;;12.57;6.22;;;;;;;;;;5057428;28;20028;-82
2021/06/04 14:51:28;;;;;;;9.82;5.60;;;;;;;;;;5064219;28;20020;-84
2021/06/04 14:54:15;;;;;;;10.68;5.10;;;;;;;;;;5057506;28;20021;-84
2021/06/04 14:57:00;;;;;;;10.13;5.15;;;;;;;;;;5060931;28;20063;-84
2021/06/04 14:59:45;;;;;;;10.20;5.53;;;;;;;;;;5055892;28;20028;-85
2021/06/04 15:02:30;;;;;;;12.30;5.85;;;;;;;;;;5058129;28;20099;-84
2021/06/04 15:05:17;;;;;;;10.35;5.35;;;;;;;;;;5067216;28;20107;-84
2021/06/04 15:08:02;;;;;;;9.75;5.32;;;;;;;;;;5053692;28;20090;-85
2021/06/04 15:10:51;;;;;;;10.27;5.30;;;;;;;;;;5052325;28;20029;-84
2021/06/04 15:13:39;;;;;;;10.02;5.57;;;;;;;;;;5058689;28;20076;-85
2021/06/04 15:16:25;;;;;;;10.05;5.40;;;;;;;;;;5058634;28;20474;-86
2021/06/04 15:19:10;;;;;;;9.55;5.60;;;;;;;;;;5061350;28;20056;-84
2021/06/04 15:21:56;;;;;;;10.43;6.32;;;;;;;;;;5053728;28;20024;-85
2021/06/04 15:24:42;;;;;;;10.70;5.10;;;;;;;;;;5058329;28;20027;-84
2021/06/04 15:27:27;;;;;;;10.55;5.30;;;;;;;;;;5052305;28;20058;-84
2021/06/04 15:30:13;;;;;;;11.27;5.32;;;;;;;;;;5057077;28;20021;-85
2021/06/04 15:32:58;;;;;;;14.93;6.50;;;;;;;;;;5056340;28;20031;-85
2021/06/04 15:35:44;;;;;;;7.63;5.35;;;;;;;;;;5059474;28;20020;-85
2021/06/04 15:38:29;;;;;;;11.75;5.45;;;;;;;;;;5057961;28;20093;-83
2021/06/04 15:41:14;;;;;;;10.55;5.30;;;;;;;;;;5058891;28;20402;-87
2021/06/04 15:44:00;;;;;;;12.85;5.93;;;;;;;;;;5059076;28;20039;-86
2021/06/04 15:46:45;;;;;;;12.38;5.80;;;;;;;;;;5062770;28;20476;-86
2021/06/04 15:49:31;;;;;;;10.65;5.35;;;;;;;;;;5053668;28;20452;-85
2021/06/04 15:52:16;;;;;;;12.00;5.55;;;;;;;;;;5054260;28;20116;-85
2021/06/04 15:55:06;;;;;;;10.90;6.70;;;;;;;;;;5058929;28;20024;-85
2021/06/04 15:57:52;;;;;;;11.57;5.90;;;;;;;;;;5058234;28;20493;-86
2021/06/04 16:00:37;;;;;;;7.88;5.57;;;;;;;;;;5062392;28;20020;-86
2021/06/04 16:03:22;;;;;;;12.27;6.25;;;;;;;;;;5061369;28;20023;-84
2021/06/04 16:06:12;;;;;;;9.15;4.65;;;;;;;;;;5061730;28;20032;-86
2021/06/04 16:08:57;;;;;;;10.75;5.38;;;;;;;;;;5056446;28;20570;-86
2021/06/04 16:11:43;;;;;;;10.13;5.65;;;;;;;;;;5047337;28;20040;-86
2021/06/04 16:14:29;;;;;;;9.65;5.88;;;;;;;;;;5056599;28;20505;-86
2021/06/04 16:17:14;;;;;;;12.25;6.28;;;;;;;;;;5054686;28;20165;-85
2021/06/04 16:20:00;;;;;;;11.77;5.60;;;;;;;;;;5062966;28;20146;-86
2021/06/04 16:22:46;;;;;;;11.85;5.55;;;;;;;;;;5034072;28;20025;-86
2021/06/04 16:25:33;;;;;;;8.23;5.30;;;;;;;;;;5039867;28;20032;-85
2021/06/04 16:28:19;;;;;;;7.95;5.05;;;;;;;;;;5036348;28;20491;-86
2021/06/04 16:31:05;;;;;;;9.63;5.70;;;;;;;;;;5028170;28;20475;-85
2021/06/04 16:33:50;;;;;;;10.85;6.03;;;;;;;;;;5036280;28;20067;-87
2021/06/04 16:36:36;;;;;;;9.30;4.80;;;;;;;;;;5036633;28;20027;-86
2021/06/04 16:39:22;;;;;;;7.40;5.10;;;;;;;;;;5033892;28;20112;-86
2021/06/04 16:42:08;;;;;;;9.90;4.80;;;;;;;;;;5040485;28;20035;-86
2021/06/04 16:44:55;;;;;;;10.23;5.50;;;;;;;;;;5043689;28;20582;-86
2021/06/04 16:47:40;;;;;;;13.77;6.60;;;;;;;;;;5051242;28;20102;-86
2021/06/04 16:50:26;;;;;;;15.43;7.05;;;;;;;;;;5038481;28;20037;-86
2021/06/04 16:53:12;;;;;;;15.07;6.53;;;;;;;;;;5042741;28;20086;-86
2021/06/04 16:55:57;;;;;;;12.50;7.00;;;;;;;;;;5037186;28;20024;-86
2021/06/04 16:58:43;;;;;;;10.35;7.53;;;;;;;;;;5043655;28;20037;-86
2021/06/04 17:01:28;;;;;;;51.10;22.30;;;;;;;;;;5034095;28;20056;-85
2021/06/04 17:04:14;;;;;;;25.02;14.10;;;;;;;;;;5045799;28;20348;-85
2021/06/04 17:06:59;;;;;;;39.35;20.65;;;;;;;;;;5039682;28;20024;-85